createdAt,value
2023-01-31T00:00:31.965Z,97096.53
2023-01-31T00:05:09.985Z,97079.00
2023-01-31T00:09:27.577Z,97089.75
2023-01-31T00:13:45.833Z,97086.81
2023-01-31T00:18:03.564Z,97088.63
2023-01-31T00:22:21.033Z,97088.44
2023-01-31T00:26:38.788Z,97100.34
2023-01-31T00:30:58.763Z,97096.44
2023-01-31T00:35:16.478Z,97101.53
2023-01-31T00:39:33.930Z,97124.09
2023-01-31T00:43:52.071Z,97117.16
2023-01-31T00:48:09.629Z,97123.81
2023-01-31T00:52:28.167Z,97125.03
2023-01-31T00:56:46.479Z,97126.91
2023-01-31T01:01:24.455Z,97135.81
2023-01-31T01:05:42.238Z,97132.16
2023-01-31T01:09:59.796Z,97140.13
2023-01-31T01:14:17.272Z,97141.41
2023-01-31T01:18:36.311Z,97146.09
2023-01-31T01:22:53.986Z,97158.81
2023-01-31T01:27:13.537Z,97163.63
2023-01-31T01:31:32.510Z,97175.28
2023-01-31T01:35:50.248Z,97182.91
2023-01-31T01:40:09.254Z,97190.00
2023-01-31T01:44:52.482Z,97190.66
2023-01-31T01:49:23.235Z,97208.53
2023-01-31T01:53:43.735Z,97203.34
2023-01-31T01:58:11.824Z,97206.16
2023-01-31T02:02:30.050Z,97207.31
2023-01-31T02:06:48.069Z,97207.09
2023-01-31T02:11:31.486Z,97213.56
2023-01-31T02:15:49.315Z,97212.78
2023-01-31T02:20:52.527Z,97223.09
2023-01-31T02:25:43.308Z,97225.41
2023-01-31T02:30:57.001Z,97234.28
2023-01-31T02:35:30.349Z,97240.97
2023-01-31T02:39:54.549Z,97249.78
2023-01-31T02:44:51.855Z,97250.34
2023-01-31T02:49:42.264Z,97252.19
2023-01-31T02:54:21.346Z,97254.94
2023-01-31T02:58:42.015Z,97255.78
2023-01-31T03:02:59.428Z,97265.06
2023-01-31T03:07:27.117Z,97262.09
2023-01-31T03:12:21.678Z,97279.00
2023-01-31T03:17:25.708Z,97274.09
2023-01-31T03:21:49.478Z,97280.63
2023-01-31T03:26:08.447Z,97289.69
2023-01-31T03:30:48.580Z,97295.84
2023-01-31T03:35:08.312Z,97309.22
2023-01-31T03:40:00.454Z,97319.72
2023-01-31T03:44:58.513Z,97318.00
2023-01-31T03:49:17.884Z,97321.38
2023-01-31T03:53:46.817Z,97326.03
2023-01-31T03:58:07.136Z,97336.66
2023-01-31T04:02:32.508Z,97349.06
2023-01-31T04:06:50.383Z,97345.19
2023-01-31T04:11:13.380Z,97341.59
2023-01-31T04:15:31.069Z,97356.56
2023-01-31T04:19:48.583Z,97370.13
2023-01-31T04:24:06.326Z,97380.69
2023-01-31T04:28:23.964Z,97377.31
2023-01-31T04:32:41.478Z,97386.94
2023-01-31T04:36:59.053Z,97401.13
2023-01-31T04:41:16.591Z,97403.94
2023-01-31T04:45:34.447Z,97403.13
2023-01-31T04:49:51.921Z,97414.69
2023-01-31T04:54:09.579Z,97421.78
2023-01-31T04:58:27.318Z,97424.34
2023-01-31T05:02:45.338Z,97423.50
2023-01-31T05:07:02.961Z,97429.16
2023-01-31T05:11:21.200Z,97455.84
2023-01-31T05:15:40.697Z,97451.47
2023-01-31T05:19:58.191Z,97462.19
2023-01-31T05:24:15.781Z,97450.13
2023-01-31T05:28:33.361Z,97468.16
2023-01-31T05:32:51.523Z,97471.91
2023-01-31T05:37:09.793Z,97475.28
2023-01-31T05:41:27.289Z,97488.81
2023-01-31T05:45:45.692Z,97489.66
2023-01-31T05:50:04.093Z,97495.22
2023-01-31T05:54:21.708Z,97496.53
2023-01-31T05:58:39.333Z,97503.13
2023-01-31T06:03:00.307Z,97521.81
2023-01-31T06:07:18.332Z,97530.19
2023-01-31T06:11:35.951Z,97537.34
2023-01-31T06:15:53.566Z,97553.03
2023-01-31T06:20:11.640Z,97562.13
2023-01-31T06:24:29.221Z,97576.22
2023-01-31T06:28:46.696Z,97579.63
2023-01-31T06:33:04.469Z,97594.13
2023-01-31T06:37:21.962Z,97594.53
2023-01-31T06:41:39.988Z,97607.66
2023-01-31T06:45:57.572Z,97612.81
2023-01-31T06:50:15.635Z,97628.88
2023-01-31T06:54:33.092Z,97630.69
2023-01-31T06:58:51.296Z,97649.38
2023-01-31T07:03:08.808Z,97649.38
2023-01-31T07:07:26.379Z,97652.13
2023-01-31T07:11:44.514Z,97665.66
2023-01-31T07:16:02.237Z,97669.63
2023-01-31T07:20:20.011Z,97673.78
2023-01-31T07:24:37.480Z,97673.56
2023-01-31T07:28:55.440Z,97684.53
2023-01-31T07:33:12.883Z,97691.06
2023-01-31T07:37:31.218Z,97693.25
2023-01-31T07:41:49.500Z,97697.44
2023-01-31T07:46:11.273Z,97690.47
2023-01-31T07:50:28.893Z,97693.81
2023-01-31T07:54:46.863Z,97704.16
2023-01-31T07:59:04.837Z,97714.09
2023-01-31T08:03:35.542Z,97707.34
2023-01-31T08:08:10.551Z,97709.53
2023-01-31T08:12:28.324Z,97717.66
2023-01-31T08:16:45.855Z,97720.03
2023-01-31T08:21:03.987Z,97729.97
2023-01-31T08:25:22.460Z,97739.53
2023-01-31T08:29:40.142Z,97745.91
2023-01-31T08:33:58.143Z,97758.00
2023-01-31T08:38:16.837Z,97759.63
2023-01-31T08:42:34.515Z,97766.75
2023-01-31T08:46:51.995Z,97772.31
2023-01-31T08:51:14.385Z,97764.78
2023-01-31T08:55:35.817Z,97774.91
2023-01-31T08:59:53.492Z,97779.28
2023-01-31T09:04:11.069Z,97778.09
2023-01-31T09:08:30.302Z,97791.00
2023-01-31T09:12:48.190Z,97795.38
2023-01-31T09:17:08.171Z,97800.72
2023-01-31T09:21:26.337Z,97800.34
2023-01-31T09:25:47.593Z,97797.94
2023-01-31T09:30:08.176Z,97800.94
2023-01-31T09:34:25.944Z,97805.53
2023-01-31T09:38:43.805Z,97811.84
2023-01-31T09:43:04.462Z,97813.06
2023-01-31T09:47:29.994Z,97812.44
2023-01-31T09:51:55.226Z,97804.50
2023-01-31T09:56:50.761Z,97809.06
2023-01-31T10:01:32.241Z,97804.72
2023-01-31T10:05:57.019Z,97808.47
2023-01-31T10:10:37.082Z,97806.50
2023-01-31T10:15:01.596Z,97805.09
2023-01-31T10:19:26.544Z,97814.44
2023-01-31T10:23:48.869Z,97801.50
2023-01-31T10:28:13.099Z,97797.38
2023-01-31T10:32:45.297Z,97795.78
2023-01-31T10:37:16.401Z,97807.91
2023-01-31T10:42:12.802Z,97804.09
2023-01-31T10:46:30.781Z,97808.25
2023-01-31T10:51:26.825Z,97802.72
2023-01-31T10:56:03.800Z,97801.94
2023-01-31T11:00:27.995Z,97798.72
2023-01-31T11:04:46.307Z,97798.16
2023-01-31T11:09:03.991Z,97793.38
2023-01-31T11:13:22.777Z,97796.56
2023-01-31T11:17:43.279Z,97784.25
2023-01-31T11:22:02.186Z,97799.97
2023-01-31T11:26:31.806Z,97801.34
2023-01-31T11:30:53.046Z,97786.44
2023-01-31T11:35:13.440Z,97784.03
2023-01-31T11:39:38.384Z,97781.06
2023-01-31T11:44:17.043Z,97785.44
2023-01-31T11:48:44.718Z,97780.47
2023-01-31T11:53:13.785Z,97784.25
2023-01-31T11:57:35.867Z,97778.28
2023-01-31T12:01:57.476Z,97772.50
2023-01-31T12:06:57.471Z,97781.84
2023-01-31T12:11:27.507Z,97775.28
2023-01-31T12:16:02.122Z,97779.47
2023-01-31T12:20:43.159Z,97782.63
2023-01-31T12:25:42.327Z,97774.47
2023-01-31T12:30:29.524Z,97766.53
2023-01-31T12:35:13.587Z,97775.69
2023-01-31T12:39:51.926Z,97758.19
2023-01-31T12:44:36.682Z,97749.25
2023-01-31T12:49:21.778Z,97746.50
2023-01-31T12:54:09.087Z,97741.91
2023-01-31T12:58:49.773Z,97751.84
2023-01-31T13:03:26.306Z,97752.00
2023-01-31T13:07:50.223Z,97753.44
2023-01-31T13:12:27.511Z,97750.44
2023-01-31T13:16:49.034Z,97758.13
2023-01-31T13:21:09.816Z,98078.84
2023-01-31T13:26:08.364Z,97883.38
2023-01-31T13:30:44.852Z,97947.31
2023-01-31T13:35:37.375Z,97812.59
2023-01-31T13:40:10.269Z,97819.75
2023-01-31T13:44:27.791Z,97755.84
2023-01-31T13:48:59.262Z,97726.28
2023-01-31T13:53:24.276Z,97734.09
2023-01-31T13:57:47.518Z,97723.19
2023-01-31T14:02:17.411Z,97713.47
2023-01-31T14:06:53.521Z,97719.66
2023-01-31T14:11:14.277Z,97723.63
2023-01-31T14:15:49.768Z,97737.13
2023-01-31T14:20:28.078Z,97719.25
2023-01-31T14:24:53.521Z,97696.78
2023-01-31T14:29:19.803Z,97687.06
2023-01-31T14:33:37.347Z,97690.47
2023-01-31T14:38:10.131Z,97692.44
2023-01-31T14:43:08.824Z,97678.78
2023-01-31T14:47:48.376Z,97664.28
2023-01-31T14:52:14.893Z,97664.50
2023-01-31T14:56:55.650Z,97661.91
2023-01-31T15:01:19.155Z,97674.03
2023-01-31T15:05:36.726Z,97665.28
2023-01-31T15:09:55.645Z,97672.44
2023-01-31T15:14:38.063Z,97665.88
2023-01-31T15:19:21.705Z,97660.72
2023-01-31T15:23:43.381Z,97655.75
2023-01-31T15:28:02.789Z,97653.38
2023-01-31T15:32:28.323Z,97651.41
2023-01-31T15:37:18.499Z,97651.00
2023-01-31T15:41:44.673Z,97634.53
2023-01-31T15:46:30.716Z,97628.16
2023-01-31T15:50:55.197Z,97619.06
2023-01-31T15:55:17.988Z,97619.06
2023-01-31T15:59:35.677Z,97626.41
2023-01-31T16:03:57.132Z,97623.41
2023-01-31T16:08:33.013Z,97630.56
2023-01-31T16:12:53.330Z,97624.00
2023-01-31T16:17:12.151Z,97632.13
2023-01-31T16:21:43.186Z,97634.53
2023-01-31T16:26:11.571Z,97630.34
2023-01-31T16:30:30.712Z,97633.53
2023-01-31T16:35:00.396Z,97627.78
2023-01-31T16:39:35.762Z,97636.69
2023-01-31T16:43:53.474Z,97634.91
2023-01-31T16:48:38.515Z,97630.16
2023-01-31T16:53:20.346Z,97627.38
2023-01-31T16:57:38.742Z,97626.38
2023-01-31T17:02:05.570Z,97614.69
2023-01-31T17:06:23.433Z,97616.88
2023-01-31T17:10:41.301Z,97616.25
2023-01-31T17:15:02.849Z,97610.50
2023-01-31T17:19:21.107Z,97609.72
2023-01-31T17:23:40.407Z,97609.50
2023-01-31T17:27:58.466Z,97601.19
2023-01-31T17:32:19.447Z,97603.16
2023-01-31T17:36:37.115Z,97604.75
2023-01-31T17:40:54.853Z,97601.59
2023-01-31T17:45:19.587Z,97592.25
2023-01-31T17:49:37.726Z,97582.16
2023-01-31T17:53:55.210Z,97581.56
2023-01-31T17:58:14.478Z,97564.88
2023-01-31T18:02:32.309Z,97557.13
2023-01-31T18:06:51.483Z,97550.78
2023-01-31T18:11:15.149Z,97546.22
2023-01-31T18:15:33.073Z,97552.56
2023-01-31T18:19:50.625Z,97545.03
2023-01-31T18:24:10.929Z,97540.69
2023-01-31T18:28:28.425Z,97533.53
2023-01-31T18:32:46.124Z,97526.22
2023-01-31T18:37:10.660Z,97528.41
2023-01-31T18:41:28.387Z,97510.75
2023-01-31T18:45:46.462Z,97509.34
2023-01-31T18:50:04.825Z,97500.00
2023-01-31T18:54:22.445Z,97499.22
2023-01-31T18:58:41.637Z,97496.06
2023-01-31T19:02:59.205Z,97486.53
2023-01-31T19:07:17.138Z,97488.13
2023-01-31T19:11:35.112Z,97473.66
2023-01-31T19:15:52.899Z,97462.94
2023-01-31T19:20:11.741Z,97454.81
2023-01-31T19:24:29.449Z,97445.09
2023-01-31T19:28:48.037Z,97450.81
2023-01-31T19:33:07.906Z,97434.97
2023-01-31T19:37:25.440Z,97432.41
2023-01-31T19:41:43.268Z,97429.03
2023-01-31T19:46:01.718Z,97417.31
2023-01-31T19:50:22.357Z,97403.47
2023-01-31T19:54:41.624Z,97399.09
2023-01-31T19:59:00.349Z,97400.66
2023-01-31T20:03:18.043Z,97394.31
2023-01-31T20:07:37.578Z,97399.88
2023-01-31T20:11:55.582Z,97399.88
2023-01-31T20:16:14.116Z,97404.03
2023-01-31T20:20:31.849Z,97395.31
2023-01-31T20:24:49.756Z,97382.22
2023-01-31T20:29:09.343Z,97381.03
2023-01-31T20:33:27.161Z,97382.81
2023-01-31T20:37:44.703Z,97375.31
2023-01-31T20:42:02.440Z,97363.78
2023-01-31T20:46:20.037Z,97368.94
2023-01-31T20:50:37.922Z,97362.41
2023-01-31T20:54:55.408Z,97356.47
2023-01-31T20:59:13.103Z,97355.84
2023-01-31T21:03:30.685Z,97346.13
2023-01-31T21:07:48.272Z,97355.06
2023-01-31T21:12:06.232Z,97348.72
2023-01-31T21:16:24.251Z,97345.53
2023-01-31T21:20:42.073Z,97340.38
2023-01-31T21:24:59.521Z,97341.16
2023-01-31T21:29:17.062Z,97334.44
2023-01-31T21:33:35.872Z,97331.47
2023-01-31T21:37:53.970Z,97321.59
2023-01-31T21:42:19.623Z,97313.81
2023-01-31T21:46:37.079Z,97309.09
2023-01-31T21:50:55.944Z,97307.50
2023-01-31T21:55:13.452Z,97322.56
2023-01-31T21:59:32.462Z,97305.31
2023-01-31T22:03:52.354Z,97313.03
2023-01-31T22:08:09.881Z,97307.69
2023-01-31T22:12:27.491Z,97317.81
2023-01-31T22:16:44.992Z,97300.94
2023-01-31T22:21:17.253Z,97295.22
2023-01-31T22:25:37.626Z,97294.00
2023-01-31T22:30:00.766Z,97285.91
2023-01-31T22:34:21.231Z,97292.66
2023-01-31T22:38:39.473Z,97289.50
2023-01-31T22:42:57.101Z,97283.91
2023-01-31T22:47:14.677Z,97305.91
2023-01-31T22:51:32.175Z,97286.69
2023-01-31T22:55:49.637Z,97284.50
2023-01-31T23:00:09.705Z,97279.59
2023-01-31T23:04:27.313Z,97264.69
2023-01-31T23:08:45.556Z,97266.31
2023-01-31T23:13:03.444Z,97280.94
2023-01-31T23:17:39.164Z,97281.94
2023-01-31T23:21:56.739Z,97258.75
2023-01-31T23:26:14.454Z,97265.91
2023-01-31T23:30:32.306Z,97263.50
2023-01-31T23:34:50.409Z,97264.91
2023-01-31T23:39:09.410Z,97257.19
2023-01-31T23:43:26.998Z,97264.28
2023-01-31T23:47:44.935Z,97279.41
2023-01-31T23:52:02.842Z,97275.59
2023-01-31T23:56:20.583Z,97269.88
